createdAt,value
2018-05-31T00:02:19.348Z,19.53
2018-05-31T00:04:47.666Z,19.59
2018-05-31T00:07:16.038Z,19.42
2018-05-31T00:09:44.358Z,19.46
2018-05-31T00:12:12.661Z,19.49
2018-05-31T00:14:41.297Z,19.45
2018-05-31T00:17:09.646Z,19.36
2018-05-31T00:19:37.961Z,19.29
2018-05-31T00:22:06.681Z,19.28
2018-05-31T00:24:35.026Z,19.18
2018-05-31T00:27:03.341Z,19.16
2018-05-31T00:29:31.742Z,19.11
2018-05-31T00:32:00.143Z,19.06
2018-05-31T00:34:28.709Z,19.02
2018-05-31T00:36:57.059Z,19.03
2018-05-31T00:39:25.417Z,18.99
2018-05-31T00:41:53.755Z,18.94
2018-05-31T00:44:22.535Z,18.94
2018-05-31T00:46:50.857Z,18.89
2018-05-31T00:49:19.187Z,18.80
2018-05-31T00:51:47.897Z,18.76
2018-05-31T00:54:16.233Z,18.68
2018-05-31T00:56:44.651Z,18.78
2018-05-31T00:59:13.192Z,18.74
2018-05-31T01:01:41.501Z,18.72
2018-05-31T01:04:09.801Z,18.63
2018-05-31T01:06:38.232Z,18.58
2018-05-31T01:09:06.536Z,18.58
2018-05-31T01:11:34.910Z,18.60
2018-05-31T01:14:03.256Z,18.60
2018-05-31T01:16:31.562Z,18.58
2018-05-31T01:18:59.863Z,18.57
2018-05-31T01:21:28.216Z,18.57
2018-05-31T01:23:56.546Z,18.55
2018-05-31T01:26:24.858Z,18.53
2018-05-31T01:28:53.228Z,18.53
2018-05-31T01:31:21.596Z,18.46
2018-05-31T01:33:49.922Z,18.41
2018-05-31T01:36:19.371Z,18.38
2018-05-31T01:38:47.724Z,18.33
2018-05-31T01:41:16.076Z,18.37
2018-05-31T01:43:44.646Z,18.35
2018-05-31T01:46:12.956Z,18.30
2018-05-31T01:48:41.258Z,18.24
2018-05-31T01:51:09.592Z,18.17
2018-05-31T01:53:37.917Z,18.16
2018-05-31T01:56:06.239Z,18.14
2018-05-31T01:58:34.646Z,18.16
2018-05-31T02:01:02.971Z,18.11
2018-05-31T02:03:31.293Z,18.08
2018-05-31T02:05:59.741Z,18.07
2018-05-31T02:08:28.057Z,18.09
2018-05-31T02:10:56.501Z,18.05
2018-05-31T02:13:25.838Z,18.02
2018-05-31T02:15:54.179Z,17.99
2018-05-31T02:18:22.496Z,17.99
2018-05-31T02:20:50.853Z,17.91
2018-05-31T02:23:19.212Z,17.91
2018-05-31T02:25:47.559Z,17.85
2018-05-31T02:28:15.909Z,17.77
2018-05-31T02:30:44.273Z,17.81
2018-05-31T02:33:12.618Z,17.77
2018-05-31T02:35:40.945Z,17.80
2018-05-31T02:38:09.272Z,17.84
2018-05-31T02:40:37.591Z,17.78
2018-05-31T02:43:05.937Z,17.73
2018-05-31T02:45:34.263Z,17.88
2018-05-31T02:48:02.589Z,17.84
2018-05-31T02:50:31.103Z,17.79
2018-05-31T02:52:59.422Z,17.82
2018-05-31T02:55:27.784Z,17.82
2018-05-31T02:57:56.406Z,17.84
2018-05-31T03:00:24.992Z,17.83
2018-05-31T03:02:53.317Z,17.77
2018-05-31T03:05:21.928Z,17.77
2018-05-31T03:07:50.278Z,17.73
2018-05-31T03:10:18.669Z,17.65
2018-05-31T03:12:47.124Z,17.73
2018-05-31T03:15:15.464Z,17.68
2018-05-31T03:17:43.836Z,17.65
2018-05-31T03:20:12.178Z,17.62
2018-05-31T03:22:40.503Z,17.55
2018-05-31T03:25:08.825Z,17.45
2018-05-31T03:27:37.172Z,17.48
2018-05-31T03:30:05.511Z,17.51
2018-05-31T03:32:33.843Z,17.56
2018-05-31T03:35:02.205Z,17.38
2018-05-31T03:37:30.607Z,17.44
2018-05-31T03:39:59.657Z,17.42
2018-05-31T03:42:28.040Z,17.46
2018-05-31T03:44:56.423Z,17.41
2018-05-31T03:47:24.910Z,17.57
2018-05-31T03:49:53.439Z,17.43
2018-05-31T03:52:21.750Z,17.48
2018-05-31T03:54:50.161Z,17.42
2018-05-31T03:57:18.752Z,17.42
2018-05-31T03:59:47.116Z,17.49
2018-05-31T04:02:15.431Z,17.46
2018-05-31T04:04:43.946Z,17.50
2018-05-31T04:07:12.265Z,17.50
2018-05-31T04:09:40.620Z,17.41
2018-05-31T04:12:09.057Z,17.42
2018-05-31T04:14:37.378Z,17.45
2018-05-31T04:17:05.706Z,17.42
2018-05-31T04:19:34.041Z,17.39
2018-05-31T04:22:02.463Z,17.44
2018-05-31T04:24:30.809Z,17.44
2018-05-31T04:26:59.497Z,17.51
2018-05-31T04:29:27.892Z,17.49
2018-05-31T04:31:56.209Z,17.51
2018-05-31T04:34:24.817Z,17.50
2018-05-31T04:36:53.117Z,17.58
2018-05-31T04:39:21.481Z,17.70
2018-05-31T04:41:49.863Z,17.68
2018-05-31T04:44:18.242Z,17.73
2018-05-31T04:46:46.630Z,17.66
2018-05-31T04:49:15.010Z,17.72
2018-05-31T04:51:43.361Z,17.72
2018-05-31T04:54:11.670Z,17.84
2018-05-31T04:56:40.030Z,17.78
2018-05-31T04:59:08.389Z,17.95
2018-05-31T05:01:36.709Z,18.05
2018-05-31T05:04:05.179Z,18.03
2018-05-31T05:06:33.676Z,17.97
2018-05-31T05:09:02.125Z,17.91
2018-05-31T05:11:30.443Z,18.01
2018-05-31T05:13:58.763Z,17.95
2018-05-31T05:16:27.081Z,18.00
2018-05-31T05:18:55.465Z,18.04
2018-05-31T05:21:23.793Z,18.10
2018-05-31T05:23:52.154Z,18.20
2018-05-31T05:26:20.545Z,18.41
2018-05-31T05:28:48.905Z,18.52
2018-05-31T05:31:17.259Z,18.55
2018-05-31T05:33:45.919Z,18.73
2018-05-31T05:36:14.284Z,18.76
2018-05-31T05:38:42.603Z,18.90
2018-05-31T05:41:11.058Z,18.95
2018-05-31T05:43:39.382Z,19.09
2018-05-31T05:46:07.736Z,19.05
2018-05-31T05:48:36.064Z,18.96
2018-05-31T05:51:05.340Z,19.14
2018-05-31T05:53:33.620Z,19.26
2018-05-31T05:56:02.214Z,19.23
2018-05-31T05:58:30.629Z,19.38
2018-05-31T06:00:58.926Z,19.21
2018-05-31T06:03:27.285Z,19.22
2018-05-31T06:05:55.727Z,19.34
2018-05-31T06:08:24.043Z,19.48
2018-05-31T06:10:52.419Z,19.58
2018-05-31T06:13:20.798Z,19.59
2018-05-31T06:15:49.145Z,19.69
2018-05-31T06:18:17.515Z,19.89
2018-05-31T06:20:45.835Z,20.02
2018-05-31T06:23:14.165Z,20.11
2018-05-31T06:25:42.943Z,20.31
2018-05-31T06:28:11.274Z,20.43
2018-05-31T06:30:44.641Z,20.25
2018-05-31T06:33:12.970Z,20.05
2018-05-31T06:35:41.278Z,20.11
2018-05-31T06:38:09.633Z,19.96
2018-05-31T06:40:38.013Z,20.12
2018-05-31T06:43:06.360Z,20.26
2018-05-31T06:45:34.847Z,20.46
2018-05-31T06:48:03.158Z,20.69
2018-05-31T06:50:31.500Z,20.85
2018-05-31T06:53:00.157Z,20.99
2018-05-31T06:55:28.495Z,21.26
2018-05-31T06:57:56.837Z,21.51
2018-05-31T07:00:25.195Z,21.72
2018-05-31T07:02:53.601Z,21.70
2018-05-31T07:05:21.987Z,21.67
2018-05-31T07:07:50.430Z,21.69
2018-05-31T07:10:18.811Z,21.86
2018-05-31T07:12:47.189Z,21.99
2018-05-31T07:15:17.446Z,21.36
2018-05-31T07:17:45.843Z,21.54
2018-05-31T07:20:14.149Z,21.56
2018-05-31T07:22:42.527Z,21.55
2018-05-31T07:25:10.849Z,21.75
2018-05-31T07:27:39.170Z,21.95
2018-05-31T07:30:07.860Z,22.25
2018-05-31T07:32:36.246Z,22.59
2018-05-31T07:35:04.554Z,22.98
2018-05-31T07:37:33.194Z,22.65
2018-05-31T07:40:01.650Z,22.58
2018-05-31T07:42:29.971Z,22.74
2018-05-31T07:44:58.316Z,22.97
2018-05-31T07:47:26.622Z,22.88
2018-05-31T07:49:54.969Z,23.17
2018-05-31T07:52:24.583Z,23.30
2018-05-31T07:54:52.997Z,23.38
2018-05-31T07:57:21.342Z,23.24
2018-05-31T07:59:49.717Z,23.29
2018-05-31T08:02:18.307Z,23.55
2018-05-31T08:04:46.709Z,23.61
2018-05-31T08:07:15.305Z,23.81
2018-05-31T08:09:44.592Z,23.97
2018-05-31T08:12:12.932Z,24.00
2018-05-31T08:14:41.357Z,24.17
2018-05-31T08:17:10.750Z,24.17
2018-05-31T08:19:39.075Z,23.68
2018-05-31T08:22:07.429Z,23.67
2018-05-31T08:24:35.754Z,24.04
2018-05-31T08:27:04.176Z,24.06
2018-05-31T08:29:33.039Z,24.26
2018-05-31T08:32:01.356Z,24.42
2018-05-31T08:34:29.677Z,24.42
2018-05-31T08:36:58.239Z,24.45
2018-05-31T08:39:26.537Z,24.41
2018-05-31T08:41:54.908Z,24.63
2018-05-31T08:44:23.399Z,24.94
2018-05-31T08:46:51.713Z,24.92
2018-05-31T08:49:20.099Z,25.03
2018-05-31T08:51:48.545Z,24.99
2018-05-31T08:54:16.882Z,25.26
2018-05-31T08:56:45.209Z,25.39
2018-05-31T08:59:13.569Z,25.32
2018-05-31T09:01:41.903Z,25.37
2018-05-31T09:04:12.180Z,25.27
2018-05-31T09:06:40.526Z,25.27
2018-05-31T09:09:08.848Z,25.17
2018-05-31T09:11:37.187Z,25.18
2018-05-31T09:14:06.001Z,25.53
2018-05-31T09:16:34.346Z,25.76
2018-05-31T09:19:02.666Z,26.03
2018-05-31T09:21:31.015Z,26.26
2018-05-31T09:23:59.338Z,26.64
2018-05-31T09:26:28.213Z,26.73
2018-05-31T09:28:56.911Z,26.68
2018-05-31T09:31:25.376Z,26.74
2018-05-31T09:33:53.904Z,26.51
2018-05-31T09:36:22.235Z,26.35
2018-05-31T09:38:50.836Z,26.57
2018-05-31T09:41:19.173Z,27.41
2018-05-31T09:43:47.547Z,28.06
2018-05-31T09:46:15.926Z,28.47
2018-05-31T09:48:44.302Z,28.84
2018-05-31T09:51:12.871Z,29.12
2018-05-31T09:53:41.194Z,29.53
2018-05-31T09:56:09.567Z,29.69
2018-05-31T09:58:37.935Z,29.27
2018-05-31T10:01:06.275Z,29.72
2018-05-31T10:03:34.585Z,29.74
2018-05-31T10:06:03.749Z,29.73
2018-05-31T10:08:32.092Z,30.66
2018-05-31T10:11:00.435Z,31.01
2018-05-31T10:13:29.777Z,31.03
2018-05-31T10:15:58.164Z,30.97
2018-05-31T10:18:27.830Z,31.23
2018-05-31T10:20:56.296Z,31.11
2018-05-31T10:23:24.636Z,31.61
2018-05-31T10:25:52.987Z,31.26
2018-05-31T10:28:21.443Z,31.55
2018-05-31T10:30:49.848Z,30.42
2018-05-31T10:33:18.223Z,31.09
2018-05-31T10:35:47.373Z,30.65
2018-05-31T10:38:15.846Z,31.20
2018-05-31T10:40:44.270Z,31.73
2018-05-31T10:43:12.632Z,31.26
2018-05-31T10:45:40.946Z,31.86
2018-05-31T10:48:09.266Z,31.37
2018-05-31T10:50:39.016Z,31.68
2018-05-31T10:53:07.373Z,32.29
2018-05-31T10:55:35.716Z,31.64
2018-05-31T10:58:04.158Z,31.69
2018-05-31T11:00:32.511Z,31.17
2018-05-31T11:03:00.851Z,31.01
2018-05-31T11:05:29.413Z,30.91
2018-05-31T11:07:57.778Z,30.79
2018-05-31T11:10:26.104Z,30.63
2018-05-31T11:12:55.078Z,30.51
2018-05-31T11:15:23.690Z,30.37
2018-05-31T11:17:52.035Z,31.08
2018-05-31T11:20:20.814Z,30.85
2018-05-31T11:22:49.189Z,31.05
2018-05-31T11:25:17.523Z,31.60
2018-05-31T11:27:46.118Z,31.71
2018-05-31T11:30:14.487Z,32.00
2018-05-31T11:32:42.788Z,31.78
2018-05-31T11:35:11.479Z,31.30
2018-05-31T11:37:39.810Z,31.22
2018-05-31T11:40:08.134Z,31.67
2018-05-31T11:42:36.472Z,31.74
2018-05-31T11:45:04.811Z,31.68
2018-05-31T11:47:33.117Z,31.79
2018-05-31T11:50:01.475Z,31.56
2018-05-31T11:52:29.773Z,31.32
2018-05-31T11:54:58.676Z,30.96
2018-05-31T11:57:27.561Z,30.68
2018-05-31T11:59:55.932Z,30.46
2018-05-31T12:02:24.284Z,30.20
2018-05-31T12:04:53.041Z,30.36
2018-05-31T12:07:21.442Z,30.47
2018-05-31T12:09:49.835Z,30.61
2018-05-31T12:12:18.872Z,30.39
2018-05-31T12:14:47.243Z,30.61
2018-05-31T12:17:15.622Z,29.78
2018-05-31T12:19:44.156Z,29.68
2018-05-31T12:22:12.492Z,30.52
2018-05-31T12:24:40.811Z,29.83
2018-05-31T12:27:09.157Z,30.60
2018-05-31T12:29:37.467Z,30.25
2018-05-31T12:32:05.795Z,30.61
2018-05-31T12:34:34.127Z,30.72
2018-05-31T12:37:02.458Z,30.54
2018-05-31T12:39:30.776Z,29.54
2018-05-31T12:41:59.909Z,29.80
2018-05-31T12:44:28.312Z,30.08
2018-05-31T12:46:56.636Z,29.74
2018-05-31T12:49:25.031Z,29.28
2018-05-31T12:51:53.389Z,29.57
2018-05-31T12:54:21.673Z,29.97
2018-05-31T12:56:50.289Z,29.58
2018-05-31T12:59:18.968Z,30.13
2018-05-31T13:01:47.481Z,30.23
2018-05-31T13:04:15.962Z,30.22
2018-05-31T13:06:45.037Z,30.72
2018-05-31T13:09:13.417Z,29.99
2018-05-31T13:11:41.859Z,30.12
2018-05-31T13:14:10.168Z,30.29
2018-05-31T13:16:38.473Z,29.87
2018-05-31T13:19:06.831Z,30.05
2018-05-31T13:21:35.145Z,29.48
2018-05-31T13:24:03.465Z,29.16
2018-05-31T13:26:32.126Z,29.27
2018-05-31T13:29:00.438Z,29.81
2018-05-31T13:31:28.866Z,30.25
2018-05-31T13:33:57.575Z,29.74
2018-05-31T13:36:25.882Z,30.00
2018-05-31T13:38:54.312Z,30.46
2018-05-31T13:41:22.670Z,29.94
2018-05-31T13:43:51.011Z,30.47
2018-05-31T13:46:19.344Z,30.72
2018-05-31T13:48:48.769Z,30.65
2018-05-31T13:51:17.252Z,30.08
2018-05-31T13:53:45.679Z,30.49
2018-05-31T13:56:14.029Z,30.19
2018-05-31T13:58:42.385Z,30.28
2018-05-31T14:01:10.692Z,30.08
2018-05-31T14:03:39.209Z,29.21
2018-05-31T14:06:07.598Z,29.62
2018-05-31T14:08:35.903Z,29.34
2018-05-31T14:11:04.267Z,29.62
2018-05-31T14:13:32.579Z,29.65
2018-05-31T14:16:00.901Z,29.87
2018-05-31T14:18:29.251Z,29.73
2018-05-31T14:20:57.644Z,29.44
2018-05-31T14:23:25.946Z,29.50
2018-05-31T14:25:54.771Z,29.73
2018-05-31T14:28:23.097Z,29.51
2018-05-31T14:30:51.484Z,29.09
2018-05-31T14:33:19.906Z,29.07
2018-05-31T14:35:48.359Z,29.45
2018-05-31T14:38:16.720Z,29.25
2018-05-31T14:40:45.839Z,29.96
2018-05-31T14:43:14.207Z,30.44
2018-05-31T14:45:42.492Z,30.07
2018-05-31T14:48:11.379Z,28.97
2018-05-31T14:50:39.700Z,29.21
2018-05-31T14:53:08.018Z,28.79
2018-05-31T14:55:38.079Z,28.57
2018-05-31T14:58:06.412Z,28.27
2018-05-31T15:00:34.714Z,28.70
2018-05-31T15:03:03.072Z,29.06
2018-05-31T15:05:31.361Z,28.79
2018-05-31T15:07:59.681Z,29.23
2018-05-31T15:10:28.407Z,28.39
2018-05-31T15:12:56.689Z,28.60
2018-05-31T15:15:25.064Z,28.37
2018-05-31T15:17:53.878Z,27.68
2018-05-31T15:20:22.245Z,28.12
2018-05-31T15:22:50.656Z,28.35
2018-05-31T15:25:19.080Z,29.13
2018-05-31T15:27:47.543Z,29.06
2018-05-31T15:30:16.078Z,29.11
2018-05-31T15:32:44.815Z,28.81
2018-05-31T15:35:13.308Z,28.51
2018-05-31T15:37:41.621Z,28.75
2018-05-31T15:40:10.766Z,28.55
2018-05-31T15:42:39.084Z,28.02
2018-05-31T15:45:07.390Z,27.93
2018-05-31T15:47:35.813Z,28.18
2018-05-31T15:50:04.190Z,28.26
2018-05-31T15:52:32.500Z,28.01
2018-05-31T15:55:00.926Z,28.13
2018-05-31T15:57:29.253Z,27.74
2018-05-31T15:59:57.566Z,27.63
2018-05-31T16:02:25.938Z,27.55
2018-05-31T16:04:54.303Z,27.98
2018-05-31T16:07:22.656Z,28.44
2018-05-31T16:09:51.125Z,28.21
2018-05-31T16:12:19.487Z,27.72
2018-05-31T16:14:47.838Z,28.52
2018-05-31T16:17:16.222Z,28.63
2018-05-31T16:19:44.803Z,28.14
2018-05-31T16:22:13.114Z,27.42
2018-05-31T16:24:41.495Z,26.99
2018-05-31T16:27:09.802Z,27.49
2018-05-31T16:29:38.101Z,27.15
2018-05-31T16:32:07.199Z,27.00
2018-05-31T16:34:35.509Z,26.83
2018-05-31T16:37:03.825Z,26.52
2018-05-31T16:39:33.343Z,26.46
2018-05-31T16:42:01.731Z,26.30
2018-05-31T16:44:30.032Z,26.02
2018-05-31T16:46:58.682Z,25.76
2018-05-31T16:49:26.981Z,25.36
2018-05-31T16:51:55.339Z,25.48
2018-05-31T16:54:23.916Z,25.19
2018-05-31T16:56:52.344Z,24.91
2018-05-31T16:59:20.737Z,24.95
2018-05-31T17:01:49.796Z,25.05
2018-05-31T17:04:18.253Z,25.11
2018-05-31T17:06:46.710Z,25.14
2018-05-31T17:09:15.627Z,24.80
2018-05-31T17:11:44.946Z,24.69
2018-05-31T17:14:13.240Z,24.70
2018-05-31T17:16:42.443Z,24.45
2018-05-31T17:19:10.783Z,24.15
2018-05-31T17:21:39.090Z,23.98
2018-05-31T17:24:07.809Z,23.83
2018-05-31T17:26:36.127Z,23.60
2018-05-31T17:29:04.506Z,23.21
2018-05-31T17:31:32.871Z,22.89
2018-05-31T17:34:01.196Z,22.90
2018-05-31T17:36:29.544Z,22.62
2018-05-31T17:38:58.059Z,22.33
2018-05-31T17:41:26.386Z,22.32
2018-05-31T17:43:54.804Z,22.38
2018-05-31T17:46:23.360Z,22.57
2018-05-31T17:48:51.681Z,22.87
2018-05-31T17:51:20.104Z,23.21
2018-05-31T17:53:49.287Z,23.33
2018-05-31T17:56:17.741Z,23.54
2018-05-31T17:58:46.246Z,23.41
2018-05-31T18:01:15.371Z,23.12
2018-05-31T18:03:43.676Z,23.23
2018-05-31T18:06:11.986Z,23.16
2018-05-31T18:08:40.426Z,23.01
2018-05-31T18:11:08.742Z,22.95
2018-05-31T18:13:37.077Z,22.73
2018-05-31T18:16:05.409Z,22.71
2018-05-31T18:18:33.790Z,22.60
2018-05-31T18:21:02.122Z,22.47
2018-05-31T18:23:30.524Z,22.44
2018-05-31T18:25:59.014Z,22.32
2018-05-31T18:28:27.436Z,22.10
2018-05-31T18:30:55.992Z,21.82
2018-05-31T18:33:24.402Z,21.76
2018-05-31T18:35:53.060Z,21.64
2018-05-31T18:38:21.399Z,21.67
2018-05-31T18:40:49.754Z,21.58
2018-05-31T18:43:19.856Z,21.40
2018-05-31T18:45:50.003Z,21.33
2018-05-31T18:48:18.381Z,21.35
2018-05-31T18:50:46.985Z,21.18
2018-05-31T18:53:16.290Z,21.14
2018-05-31T18:55:45.652Z,21.14
2018-05-31T18:58:14.149Z,21.02
2018-05-31T19:00:42.721Z,20.87
2018-05-31T19:03:11.018Z,20.67
2018-05-31T19:05:39.347Z,20.61
2018-05-31T19:08:07.693Z,20.54
2018-05-31T19:10:36.023Z,20.51
2018-05-31T19:13:10.477Z,20.37
2018-05-31T19:15:38.827Z,20.34
2018-05-31T19:18:07.134Z,20.21
2018-05-31T19:20:35.493Z,20.10
2018-05-31T19:23:03.810Z,20.14
2018-05-31T19:25:32.214Z,20.05
2018-05-31T19:28:00.644Z,19.87
2018-05-31T19:30:34.763Z,19.77
2018-05-31T19:33:03.425Z,19.74
2018-05-31T19:35:37.393Z,19.56
2018-05-31T19:38:05.780Z,19.63
2018-05-31T19:40:34.080Z,19.66
2018-05-31T19:43:08.081Z,19.62
2018-05-31T19:45:36.384Z,19.54
2018-05-31T19:48:04.702Z,19.56
2018-05-31T19:50:33.030Z,19.55
2018-05-31T19:53:06.949Z,19.50
2018-05-31T19:55:35.452Z,19.52
2018-05-31T19:58:09.318Z,19.50
2018-05-31T20:00:44.123Z,19.44
2018-05-31T20:03:18.064Z,19.41
2018-05-31T20:05:47.334Z,19.38
2018-05-31T20:08:15.662Z,19.37
2018-05-31T20:10:44.036Z,19.17
2018-05-31T20:13:12.392Z,19.19
2018-05-31T20:15:40.720Z,19.07
2018-05-31T20:18:09.142Z,19.12
2018-05-31T20:20:38.346Z,19.18
2018-05-31T20:23:06.655Z,19.16
2018-05-31T20:25:34.969Z,19.12
2018-05-31T20:28:03.301Z,19.06
2018-05-31T20:30:31.612Z,19.02
2018-05-31T20:32:59.928Z,19.05
2018-05-31T20:35:28.305Z,18.99
2018-05-31T20:37:56.699Z,18.96
2018-05-31T20:40:25.124Z,18.95
2018-05-31T20:42:53.613Z,18.83
2018-05-31T20:45:22.001Z,18.82
2018-05-31T20:47:50.436Z,18.89
2018-05-31T20:50:19.902Z,18.94
2018-05-31T20:52:48.292Z,18.93
2018-05-31T20:55:16.947Z,18.79
2018-05-31T20:57:45.430Z,18.88
2018-05-31T21:00:13.738Z,18.87
2018-05-31T21:02:43.238Z,18.85
2018-05-31T21:05:11.588Z,18.98
2018-05-31T21:07:39.907Z,18.88
2018-05-31T21:10:08.214Z,18.92
2018-05-31T21:12:36.539Z,18.93
2018-05-31T21:15:04.860Z,18.88
2018-05-31T21:17:33.167Z,18.87
2018-05-31T21:20:01.536Z,18.95
2018-05-31T21:22:29.813Z,18.91
2018-05-31T21:24:58.132Z,18.96
2018-05-31T21:27:26.597Z,18.98
2018-05-31T21:29:54.976Z,18.89
2018-05-31T21:32:23.286Z,18.89
2018-05-31T21:34:51.693Z,18.87
2018-05-31T21:37:20.039Z,18.82
2018-05-31T21:39:48.425Z,18.73
2018-05-31T21:42:16.879Z,18.73
2018-05-31T21:44:45.259Z,18.67
2018-05-31T21:47:13.668Z,18.66
2018-05-31T21:49:41.961Z,18.71
2018-05-31T21:52:10.314Z,18.70
2018-05-31T21:54:38.606Z,18.70
2018-05-31T21:57:06.938Z,18.69
2018-05-31T21:59:35.257Z,18.69
2018-05-31T22:02:03.698Z,18.66
2018-05-31T22:04:32.033Z,18.64
2018-05-31T22:07:00.335Z,18.61
2018-05-31T22:09:28.661Z,18.63
2018-05-31T22:11:58.273Z,18.57
2018-05-31T22:14:26.676Z,18.46
2018-05-31T22:16:55.061Z,18.50
2018-05-31T22:19:24.386Z,18.42
2018-05-31T22:21:52.940Z,18.43
2018-05-31T22:24:21.287Z,18.43
2018-05-31T22:26:50.667Z,18.42
2018-05-31T22:29:19.060Z,18.41
2018-05-31T22:31:47.550Z,18.44
2018-05-31T22:34:15.951Z,18.40
2018-05-31T22:36:44.236Z,18.45
2018-05-31T22:39:12.619Z,18.39
2018-05-31T22:41:41.111Z,18.36
2018-05-31T22:44:09.446Z,18.27
2018-05-31T22:46:37.769Z,18.35
2018-05-31T22:49:06.979Z,18.34
2018-05-31T22:51:35.317Z,18.37
2018-05-31T22:54:03.715Z,18.38
2018-05-31T22:56:32.054Z,18.33
2018-05-31T22:59:00.380Z,18.31
2018-05-31T23:01:29.328Z,18.27
2018-05-31T23:03:58.338Z,18.24
2018-05-31T23:06:26.758Z,18.15
2018-05-31T23:08:55.127Z,18.13
2018-05-31T23:11:23.684Z,18.06
2018-05-31T23:13:52.143Z,18.05
2018-05-31T23:16:20.536Z,18.07
2018-05-31T23:18:49.017Z,18.03
2018-05-31T23:21:17.389Z,18.02
2018-05-31T23:23:45.834Z,17.97
2018-05-31T23:26:14.834Z,17.92
2018-05-31T23:28:43.156Z,17.91
2018-05-31T23:31:11.418Z,17.87
2018-05-31T23:33:39.757Z,17.82
2018-05-31T23:36:08.072Z,17.77
2018-05-31T23:38:36.381Z,17.68
2018-05-31T23:41:04.723Z,17.73
2018-05-31T23:43:33.041Z,17.75
2018-05-31T23:46:01.366Z,17.73
2018-05-31T23:48:30.288Z,17.71
2018-05-31T23:50:58.590Z,17.70
2018-05-31T23:53:26.966Z,17.53
2018-05-31T23:55:55.594Z,17.53
2018-05-31T23:58:23.981Z,17.55
